Flight Track Log - Related Links

Times and Time Zones

All times are in EDT time to prevent confusion due to time zone crossing. See the EJA122 flight status page for this flight to view local times or setup timezone preferences in your user account.

Time Position Orientation Groundspeed Altitude Reporting Facility
EDT Latitude Longitude Course Direction KTS MPH feet Rate Location/Type
Sat 10:01:29 AM 28.5500 -81.3167 41° Northeast 120 138 900  Level Orlando TRACON
Sat 10:02:11 AM 28.5833 -81.2833 41° Northeast 220 253 1,600 944 Climbing Orlando TRACON
Sat 10:03:17 AM 28.6333 -81.2500 30° Northeast 223 257 2,600 1,240 Climbing Orlando TRACON
Sat 10:04:12 AM 28.6833 -81.2667 344° North 232 267 4,100 1,200 Climbing Orlando TRACON
Sat 10:05:12 AM 28.7500 -81.2833 348° North 228 262 4,900 1,021 Climbing Orlando TRACON
Sat 10:07:26 AM 28.8567 -81.3753 323° Northwest 216 249 7,400 1,515 Climbing Jacksonville Center
Sat 10:08:26 AM 28.9278 -81.3742 North 216 249 9,800 2,250 Climbing Jacksonville Center
Sat 10:09:26 AM 28.9989 -81.3803 356° North 254 292 11,900 1,900 Climbing Jacksonville Center
Sat 10:10:26 AM 29.0739 -81.3886 354° North 266 306 13,600 1,600 Climbing Jacksonville Center
Sat 10:11:26 AM 29.1597 -81.3969 355° North 300 345 15,100 1,500 Climbing Jacksonville Center
Sat 10:12:26 AM 29.2475 -81.4050 355° North 314 361 16,600 1,300 Climbing Jacksonville Center
Sat 10:13:26 AM 29.3414 -81.4131 356° North 331 381 17,700 1,100 Climbing Jacksonville Center
Sat 10:14:26 AM 29.4397 -81.4214 356° North 345 397 18,800 1,050 Climbing Jacksonville Center
Sat 10:15:26 AM 29.5294 -81.4342 353° North 350 403 19,800 1,050 Climbing Jacksonville Center
Sat 10:16:26 AM 29.6300 -81.4422 356° North 355 409 20,900 1,100 Climbing Jacksonville Center
Sat 10:17:26 AM 29.7322 -81.4528 355° North 360 414 22,000 1,100 Climbing Jacksonville Center
Sat 10:18:26 AM 29.8347 -81.4608 356° North 365 420 23,100 1,100 Climbing Jacksonville Center
Sat 10:19:26 AM 29.9392 -81.4736 354° North 372 428 24,200 1,100 Climbing Jacksonville Center
Sat 10:20:26 AM 30.0397 -81.4936 350° North 372 428 25,300 1,050 Climbing Jacksonville Center
Sat 10:21:26 AM 30.1508 -81.5378 341° North 372 428 26,300 900 Climbing Jacksonville Center
Sat 10:22:26 AM 30.2514 -81.5725 343° North 377 434 27,100 850 Climbing Jacksonville Center
Sat 10:23:26 AM 30.3561 -81.6119 342° North 384 442 28,000 850 Climbing Jacksonville Center
Sat 10:24:26 AM 30.4608 -81.6514 342° North 384 442 28,800 800 Climbing Jacksonville Center
Sat 10:25:26 AM 30.5658 -81.6958 340° North 389 448 29,600 850 Climbing Jacksonville Center
Sat 10:26:26 AM 30.6725 -81.7381 341° North 389 448 30,500 850 Climbing Jacksonville Center
Sat 10:27:26 AM 30.7794 -81.7778 342° North 389 448 31,300 700 Climbing Jacksonville Center
Sat 10:28:26 AM 30.8883 -81.8225 341° North 394 453 31,900 550 Climbing Jacksonville Center
Sat 10:29:26 AM 30.9994 -81.8650 342° North 407 468 32,400 550 Climbing Jacksonville Center
Sat 10:30:26 AM 31.1106 -81.9097 341° North 413 475 33,000 300 Climbing Jacksonville Center
Sat 10:31:26 AM 31.2256 -81.9525 342° North 418 481 33,000  Level Jacksonville Center
Sat 10:32:26 AM 31.3428 -82.0000 341° North 440 506 33,000  Level Jacksonville Center
Sat 10:33:26 AM 31.4622 -82.0475 341° North 447 514 33,000  Level Jacksonville Center
Sat 10:34:26 AM 31.5836 -82.1000 340° North 453 521 33,000  Level Jacksonville Center
Sat 10:36:43 AM 31.8497 -82.1978 343° North 450 518 33,000  Level Atlanta Center
Sat 10:37:43 AM 31.9736 -82.2492 341° North 450 518 33,000  Level Atlanta Center
Sat 10:38:43 AM 32.0933 -82.2983 341° North 450 518 33,000  Level Atlanta Center
Sat 10:39:43 AM 32.2150 -82.3450 342° North 450 518 33,000  Level Atlanta Center
Sat 10:40:43 AM 32.3367 -82.3967 340° North 450 518 33,000 150 Level Atlanta Center
Sat 10:41:43 AM 32.4606 -82.4436 342° North 450 518 33,300 450 Climbing Atlanta Center
Sat 10:42:43 AM 32.5781 -82.4908 341° North 450 518 33,900 350 Climbing Atlanta Center
Sat 10:43:43 AM 32.6997 -82.5431 340° North 450 518 34,000 50 Climbing Atlanta Center
Sat 10:44:43 AM 32.8214 -82.5903 342° North 450 518 34,000  Level Atlanta Center
Sat 10:45:43 AM 32.9431 -82.6428 340° North 450 518 34,000  Level Atlanta Center
Sat 10:46:43 AM 33.0667 -82.6928 341° North 455 524 34,000  Level Atlanta Center
Sat 10:47:43 AM 33.1925 -82.7431 342° North 455 524 34,000  Level Atlanta Center
Sat 10:48:43 AM 33.3350 -82.8006 341° North 465 535 34,000  Level Atlanta Center
Sat 10:49:43 AM 33.4650 -82.8511 342° North 488 562 34,000  Level Atlanta Center
Sat 10:50:43 AM 33.5908 -82.9092 339° North 488 562 34,000  Level Atlanta Center
Sat 10:51:43 AM 33.7122 -82.9425 347° North 488 562 34,000  Level Atlanta Center
Sat 10:52:43 AM 33.8519 -82.9306 North 494 568 34,000  Level Atlanta Center
Sat 10:53:43 AM 33.9892 -82.8964 12° North 501 577 34,000  Level Atlanta Center
Sat 10:54:43 AM 34.1331 -82.8719 North 506 582 34,000  Level Atlanta Center
Sat 10:55:43 AM 34.2733 -82.9075 348° North 495 570 34,000  Level Atlanta Center
Sat 10:56:43 AM 34.4011 -82.9614 341° North 495 570 34,000  Level Atlanta Center
Sat 10:57:43 AM 34.5167 -83.0481 328° Northwest 488 562 34,000  Level Atlanta Center
Sat 10:58:43 AM 34.6175 -83.1528 319° Northwest 477 549 34,000  Level Atlanta Center
Sat 10:59:43 AM 34.7144 -83.2706 315° West 477 549 34,000  Level Atlanta Center
Sat 11:00:43 AM 34.8275 -83.3606 327° Northwest 477 549 34,000  Level Atlanta Center
Sat 11:01:43 AM 34.9447 -83.4433 330° Northwest 482 555 34,000  Level Atlanta Center
Sat 11:02:43 AM 35.0806 -83.4931 343° North 482 555 34,000  Level Atlanta Center
Sat 11:03:43 AM 35.2311 -83.5481 343° North 500 575 34,000  Level Atlanta Center
Sat 11:04:43 AM 35.3669 -83.6008 342° North 505 581 34,000  Level Atlanta Center
Sat 11:05:43 AM 35.5006 -83.6511 343° North 505 581 34,000  Level Atlanta Center
Sat 11:06:43 AM 35.6344 -83.7014 343° North 505 581 34,000  Level Atlanta Center
Sat 11:07:43 AM 35.7700 -83.7522 343° North 505 581 34,000  Level Atlanta Center
Sat 11:08:43 AM 35.9078 -83.8056 343° North 505 581 34,000  Level Atlanta Center
Sat 11:09:43 AM 36.0436 -83.8564 343° North 505 581 34,000  Level Atlanta Center
Sat 11:10:21 AM 36.1258 -83.8872 343° North 514 592 34,000  Level Indianapolis Center
Sat 11:11:22 AM 36.2622 -83.9411 342° North 516 594 34,000  Level Indianapolis Center
Sat 11:12:26 AM 36.4006 -83.9933 343° North 520 598 34,000  Level Indianapolis Center
Sat 11:13:26 AM 36.5347 -84.0464 342° North 519 597 34,000  Level Indianapolis Center
Sat 11:14:27 AM 36.6969 -84.1100 343° North 521 600 34,000  Level Indianapolis Center
Sat 11:15:28 AM 36.8356 -84.1644 343° North 518 596 34,000  Level Indianapolis Center
Sat 11:16:31 AM 36.9739 -84.2192 342° North 517 595 34,000  Level Indianapolis Center
Sat 11:17:32 AM 37.1117 -84.2736 343° North 517 595 34,000  Level Indianapolis Center
Sat 11:18:35 AM 37.2453 -84.3281 342° North 508 585 34,000  Level Indianapolis Center
Sat 11:19:36 AM 37.3783 -84.3797 343° North 502 578 34,000  Level Indianapolis Center
Sat 11:20:36 AM 37.5089 -84.4311 343° North 492 566 34,000  Level Indianapolis Center
Sat 11:21:40 AM 37.6389 -84.4831 342° North 490 564 34,000  Level Indianapolis Center
Sat 11:22:41 AM 37.7856 -84.5453 341° North 478 550 34,000  Level Indianapolis Center
Sat 11:23:41 AM 37.9150 -84.5964 343° North 482 555 34,000  Level Indianapolis Center
Sat 11:24:45 AM 38.0428 -84.6492 342° North 482 555 34,000  Level Indianapolis Center
Sat 11:25:46 AM 38.1725 -84.6997 343° North 485 558 34,000  Level Indianapolis Center
Sat 11:26:47 AM 38.2981 -84.7500 343° North 474 545 34,000  Level Indianapolis Center
Sat 11:27:48 AM 38.4239 -84.8022 342° North 474 545 34,000  Level Indianapolis Center
Sat 11:28:52 AM 38.5497 -84.8522 343° North 472 543 34,000  Level Indianapolis Center
Sat 11:29:52 AM 38.6903 -84.9133 341° North 470 541 34,000  Level Indianapolis Center
Sat 11:30:53 AM 38.8128 -84.9633 342° North 466 536 34,000 -48 Level Indianapolis Center
Sat 11:31:57 AM 38.9336 -85.0150 342° North 460 529 33,900 -905 Descending Indianapolis Center
Sat 11:32:59 AM 39.0561 -85.0647 343° North 463 533 32,100 -1,820 Descending Indianapolis Center
Sat 11:33:59 AM 39.1781 -85.1161 342° North 463 533 30,200 -1,884 Descending Indianapolis Center
Sat 11:35:00 AM 39.2975 -85.1664 342° North 457 526 28,300 -1,920 Descending Indianapolis Center
Sat 11:36:04 AM 39.4428 -85.2283 342° North 459 528 26,200 -1,872 Descending Indianapolis Center
Sat 11:37:05 AM 39.5633 -85.2783 342° North 459 528 24,400 -1,736 Descending Indianapolis Center
Sat 11:38:05 AM 39.6828 -85.3294 342° North 457 526 22,700 -1,694 Descending Indianapolis Center
Sat 11:39:09 AM 39.8011 -85.3797 342° North 453 521 20,900 -1,728 Descending Indianapolis Center
Sat 11:40:10 AM 39.9114 -85.4286 341° North 429 494 19,100 -1,610 Descending Indianapolis Center
Sat 11:41:12 AM 40.0200 -85.4731 343° North 415 478 17,600 -1,869 Descending Indianapolis Center
Sat 11:42:12 AM 40.1403 -85.5261 341° North 385 443 15,300 -2,226 Descending Indianapolis Center
Sat 11:43:16 AM 40.2350 -85.5664 342° North 364 419 13,000 -2,064 Descending Indianapolis Center
Sat 11:44:17 AM 40.3303 -85.6083 341° North 362 417 11,000 -984 Descending Indianapolis Center
Sat 11:45:18 AM 40.4203 -85.6478 342° North 352 405 11,000 -50 Level Indianapolis Center
Sat 11:46:18 AM 40.5011 -85.6833 342° North 320 368 10,900 -1,113 Descending Indianapolis Center
Sat 11:47:22 AM 40.5781 -85.7172 342° North 300 345 8,700 -2,400 Descending Indianapolis Center
Sat 11:48:23 AM 40.6658 -85.7742 334° Northwest 298 343 5,900 -1,770 Descending Indianapolis Center
Sat 11:49:24 AM 40.7336 -85.7864 352° North 273 314 5,100 -1,082 Descending Indianapolis Center
Sat 11:50:25 AM 40.7811 -85.7919 355° North 210 242 3,700 -1,377 Descending Indianapolis Center
Sat 11:52:00 AM 40.7620 -85.7988 346° North  Level Estimated
Sat 11:59:00 AM 40.7620 -85.7988 346° North  Level Estimated

Login

Don't have an account? Register now (free) for customized features, flight alerts, and more!